createdAt,value
2022-09-23T00:00:06.945Z,7.22
2022-09-23T00:02:37.143Z,8.77
2022-09-23T00:05:06.600Z,7.25
2022-09-23T00:07:35.285Z,6.97
2022-09-23T00:10:04.043Z,7.63
2022-09-23T00:12:32.776Z,9.10
2022-09-23T00:15:02.184Z,7.83
2022-09-23T00:17:33.383Z,8.00
2022-09-23T00:20:03.892Z,7.10
2022-09-23T00:22:32.737Z,7.00
2022-09-23T00:25:01.413Z,5.72
2022-09-23T00:27:33.253Z,6.90
2022-09-23T00:30:02.489Z,6.47
2022-09-23T00:32:34.449Z,6.72
2022-09-23T00:35:05.449Z,7.45
2022-09-23T00:37:34.273Z,7.22
2022-09-23T00:40:04.051Z,6.57
2022-09-23T00:42:32.959Z,5.88
2022-09-23T00:45:03.136Z,6.55
2022-09-23T00:47:36.908Z,6.55
2022-09-23T00:50:14.973Z,6.80
2022-09-23T00:52:44.666Z,6.60
2022-09-23T00:55:20.795Z,6.63
2022-09-23T00:57:49.685Z,5.97
2022-09-23T01:00:18.904Z,5.38
2022-09-23T01:02:48.104Z,5.95
2022-09-23T01:05:18.711Z,6.10
2022-09-23T01:07:48.448Z,7.95
2022-09-23T01:10:19.459Z,10.98
2022-09-23T01:13:16.059Z,24.23
2022-09-23T01:15:53.701Z,34.88
2022-09-23T01:18:38.360Z,55.67
2022-09-23T01:21:24.263Z,57.80
2022-09-23T01:24:48.234Z,46.00
2022-09-23T01:28:11.898Z,44.28
2022-09-23T01:30:49.732Z,40.55
2022-09-23T01:33:26.514Z,27.07
2022-09-23T01:36:20.417Z,25.33
2022-09-23T01:38:59.741Z,19.67
2022-09-23T01:41:56.512Z,17.08
2022-09-23T01:44:35.677Z,18.60
2022-09-23T01:47:12.403Z,13.97
2022-09-23T01:49:51.914Z,13.32
2022-09-23T01:52:28.247Z,18.77
2022-09-23T01:55:08.814Z,23.88
2022-09-23T01:57:44.662Z,17.27
2022-09-23T02:00:17.652Z,11.10
2022-09-23T02:02:54.044Z,8.88
2022-09-23T02:05:29.759Z,10.32
2022-09-23T02:08:04.581Z,7.32
2022-09-23T02:10:44.250Z,9.30
2022-09-23T02:13:20.715Z,7.57
2022-09-23T02:15:56.238Z,7.60
2022-09-23T02:18:31.207Z,7.55
2022-09-23T02:21:07.652Z,8.25
2022-09-23T02:23:45.173Z,8.45
2022-09-23T02:26:22.170Z,12.17
2022-09-23T02:29:01.606Z,11.32
2022-09-23T02:31:40.299Z,9.27
2022-09-23T02:34:23.315Z,9.32
2022-09-23T02:37:08.220Z,43.67
2022-09-23T02:39:55.666Z,20.43
2022-09-23T02:42:34.806Z,15.73
2022-09-23T02:45:03.669Z,13.45
2022-09-23T02:47:37.067Z,10.43
2022-09-23T02:50:09.422Z,12.93
2022-09-23T02:52:39.215Z,17.73
2022-09-23T02:55:13.101Z,25.15
2022-09-23T02:57:42.104Z,20.70
2022-09-23T03:00:13.236Z,24.65
2022-09-23T03:03:02.379Z,23.15
2022-09-23T03:05:41.558Z,22.47
2022-09-23T03:08:36.870Z,18.25
2022-09-23T03:11:10.616Z,18.27
2022-09-23T03:14:05.194Z,19.33
2022-09-23T03:16:43.930Z,17.67
2022-09-23T03:19:28.237Z,18.60
2022-09-23T03:22:07.156Z,19.17
2022-09-23T03:24:39.588Z,19.45
2022-09-23T03:27:16.257Z,20.23
2022-09-23T03:29:49.283Z,20.35
2022-09-23T03:32:24.281Z,21.93
2022-09-23T03:34:56.769Z,17.73
2022-09-23T03:37:33.318Z,23.08
2022-09-23T03:40:10.991Z,20.65
2022-09-23T03:42:42.111Z,18.80
2022-09-23T03:45:18.378Z,16.10
2022-09-23T03:47:47.921Z,12.73
2022-09-23T03:50:17.797Z,14.77
2022-09-23T03:52:49.705Z,13.52
2022-09-23T03:55:19.710Z,19.35
2022-09-23T03:57:49.009Z,20.53
2022-09-23T04:00:18.144Z,16.88
2022-09-23T04:02:47.060Z,16.92
2022-09-23T04:05:15.752Z,14.43
2022-09-23T04:07:44.405Z,11.45
2022-09-23T04:10:14.444Z,12.93
2022-09-23T04:12:43.132Z,11.98
2022-09-23T04:15:12.753Z,23.75
2022-09-23T04:17:41.960Z,25.58
2022-09-23T04:20:11.316Z,34.90
2022-09-23T04:22:40.265Z,31.20
2022-09-23T04:25:10.561Z,17.38
2022-09-23T04:27:40.853Z,15.63
2022-09-23T04:30:11.200Z,8.32
2022-09-23T04:32:40.276Z,9.73
2022-09-23T04:35:09.670Z,11.03
2022-09-23T04:37:38.323Z,9.55
2022-09-23T04:40:09.071Z,10.93
2022-09-23T04:42:37.919Z,9.93
2022-09-23T04:45:09.772Z,9.40
2022-09-23T04:47:59.481Z,10.33
2022-09-23T04:50:28.370Z,10.05
2022-09-23T04:52:57.322Z,9.38
2022-09-23T04:55:26.316Z,12.15
2022-09-23T04:57:57.225Z,15.88
2022-09-23T05:00:28.797Z,19.73
2022-09-23T05:02:57.957Z,20.52
2022-09-23T05:05:28.402Z,14.70
2022-09-23T05:07:58.072Z,18.27
2022-09-23T05:10:26.764Z,14.88
2022-09-23T05:13:00.409Z,10.77
2022-09-23T05:15:32.888Z,11.80
2022-09-23T05:18:02.741Z,10.02
2022-09-23T05:20:31.569Z,10.90
2022-09-23T05:23:01.210Z,8.77
2022-09-23T05:25:30.194Z,7.03
2022-09-23T05:27:58.974Z,4.78
2022-09-23T05:30:35.019Z,5.47
2022-09-23T05:33:13.650Z,5.15
2022-09-23T05:35:48.805Z,5.22
2022-09-23T05:38:17.825Z,5.63
2022-09-23T05:40:46.653Z,6.03
2022-09-23T05:43:15.797Z,5.57
2022-09-23T05:45:46.427Z,5.00
2022-09-23T05:48:15.181Z,5.65
2022-09-23T05:50:51.936Z,5.67
2022-09-23T05:53:21.447Z,4.28
2022-09-23T05:55:51.527Z,3.95
2022-09-23T05:58:20.407Z,4.07
2022-09-23T06:00:51.503Z,3.38
2022-09-23T06:03:26.995Z,3.93
2022-09-23T06:05:57.236Z,4.57
2022-09-23T06:08:26.191Z,5.25
2022-09-23T06:10:55.078Z,4.70
2022-09-23T06:13:24.000Z,5.55
2022-09-23T06:15:59.478Z,4.87
2022-09-23T06:18:28.361Z,4.53
2022-09-23T06:20:57.380Z,16.23
2022-09-23T06:23:26.778Z,5.20
2022-09-23T06:25:55.549Z,5.22
2022-09-23T06:28:27.262Z,4.17
2022-09-23T06:31:00.941Z,3.92
2022-09-23T06:33:36.683Z,3.55
2022-09-23T06:36:08.856Z,4.55
2022-09-23T06:38:41.467Z,8.10
2022-09-23T06:41:10.537Z,4.47
2022-09-23T06:43:39.608Z,4.80
2022-09-23T06:46:17.401Z,3.63
2022-09-23T06:48:48.853Z,3.42
2022-09-23T06:51:21.877Z,7.15
2022-09-23T06:53:51.038Z,4.17
2022-09-23T06:56:22.223Z,4.30
2022-09-23T06:58:53.596Z,86.22
2022-09-23T07:01:24.368Z,9.60
2022-09-23T07:03:54.409Z,4.38
2022-09-23T07:06:25.298Z,14.30
2022-09-23T07:08:55.548Z,5.00
2022-09-23T07:11:24.360Z,3.50
2022-09-23T07:13:53.214Z,7.47
2022-09-23T07:16:23.613Z,4.75
2022-09-23T07:18:53.563Z,8.83
2022-09-23T07:21:22.366Z,5.07
2022-09-23T07:23:57.833Z,3.35
2022-09-23T07:26:27.935Z,3.17
2022-09-23T07:29:04.602Z,2.30
2022-09-23T07:31:39.666Z,19.83
2022-09-23T07:34:11.840Z,4.25
2022-09-23T07:36:41.870Z,1.80
2022-09-23T07:39:13.398Z,5.68
2022-09-23T07:41:44.705Z,6.57
2022-09-23T07:44:13.787Z,1.57
2022-09-23T07:46:43.891Z,1.13
2022-09-23T07:49:13.693Z,1.20
2022-09-23T07:51:46.269Z,2.08
2022-09-23T07:54:18.436Z,1.52
2022-09-23T07:56:48.275Z,1.93
2022-09-23T07:59:19.565Z,1.15
2022-09-23T08:01:54.198Z,1.00
2022-09-23T08:04:27.850Z,1.40
2022-09-23T08:07:00.797Z,0.98
2022-09-23T08:09:33.061Z,1.10
2022-09-23T08:12:02.759Z,1.02
2022-09-23T08:14:31.531Z,0.98
2022-09-23T08:17:01.541Z,0.80
2022-09-23T08:19:30.332Z,1.08
2022-09-23T08:21:59.231Z,0.87
2022-09-23T08:24:30.305Z,1.20
2022-09-23T08:26:59.847Z,0.80
2022-09-23T08:29:28.477Z,0.55
2022-09-23T08:31:57.388Z,1.00
2022-09-23T08:34:29.650Z,0.67
2022-09-23T08:36:58.442Z,0.60
2022-09-23T08:39:27.197Z,0.88
2022-09-23T08:42:10.536Z,0.43
2022-09-23T08:44:50.572Z,0.50
2022-09-23T08:47:26.176Z,0.50
2022-09-23T08:50:06.972Z,0.40
2022-09-23T08:52:49.578Z,0.30
2022-09-23T08:55:20.171Z,0.60
2022-09-23T08:58:26.528Z,0.60
2022-09-23T09:01:10.611Z,0.73
2022-09-23T09:03:47.530Z,0.60
2022-09-23T09:06:23.991Z,0.40
2022-09-23T09:09:00.998Z,0.77
2022-09-23T09:11:38.169Z,0.60
2022-09-23T09:14:23.673Z,0.60
2022-09-23T09:17:02.953Z,0.60
2022-09-23T09:20:09.001Z,0.47
2022-09-23T09:22:57.862Z,0.70
2022-09-23T09:25:44.379Z,0.60
2022-09-23T09:28:21.329Z,0.40
2022-09-23T09:30:57.393Z,0.90
2022-09-23T09:33:33.222Z,0.60
2022-09-23T09:36:16.049Z,0.88
2022-09-23T09:38:46.414Z,1.13
2022-09-23T09:41:21.488Z,1.10
2022-09-23T09:43:57.718Z,1.63
2022-09-23T09:46:54.694Z,1.40
2022-09-23T09:49:40.117Z,1.30
2022-09-23T09:52:23.757Z,1.25
2022-09-23T09:55:00.545Z,1.23
2022-09-23T09:57:36.071Z,2.03
2022-09-23T10:00:44.427Z,1.30
2022-09-23T10:03:31.496Z,1.90
2022-09-23T10:06:00.245Z,2.05
2022-09-23T10:08:33.650Z,1.30
2022-09-23T10:11:07.097Z,2.90
2022-09-23T10:13:38.232Z,1.42
2022-09-23T10:16:07.459Z,1.50
2022-09-23T10:18:40.271Z,1.10
2022-09-23T10:21:12.286Z,1.20
2022-09-23T10:23:45.709Z,0.70
2022-09-23T10:26:18.600Z,0.68
2022-09-23T10:28:52.314Z,0.82
2022-09-23T10:31:26.878Z,0.77
2022-09-23T10:33:59.866Z,1.00
2022-09-23T10:36:30.264Z,1.30
2022-09-23T10:39:15.252Z,1.00
2022-09-23T10:42:31.168Z,0.80
2022-09-23T10:45:37.549Z,0.80
2022-09-23T10:48:27.232Z,1.10
2022-09-23T10:50:59.832Z,1.25
2022-09-23T10:53:47.587Z,1.40
2022-09-23T10:56:31.469Z,1.48
2022-09-23T10:59:29.259Z,1.15
2022-09-23T11:02:15.087Z,1.20
2022-09-23T11:05:17.224Z,0.98
2022-09-23T11:07:59.660Z,1.27
2022-09-23T11:11:03.128Z,0.98
2022-09-23T11:14:04.317Z,1.30
2022-09-23T11:16:52.794Z,1.07
2022-09-23T11:20:32.571Z,4.30
2022-09-23T11:23:39.066Z,0.93
2022-09-23T11:26:32.921Z,0.85
2022-09-23T11:29:42.538Z,0.75
2022-09-23T11:32:39.703Z,0.70
2022-09-23T11:35:20.595Z,0.80
2022-09-23T11:37:55.034Z,0.65
2022-09-23T11:40:32.261Z,1.00
2022-09-23T11:43:07.261Z,0.63
2022-09-23T11:45:45.153Z,1.00
2022-09-23T11:48:23.084Z,1.60
2022-09-23T11:50:59.650Z,1.40
2022-09-23T11:53:43.655Z,1.00
2022-09-23T11:56:33.973Z,1.08
2022-09-23T11:59:14.160Z,0.60
2022-09-23T12:01:49.729Z,0.93
2022-09-23T12:04:55.295Z,0.88
2022-09-23T12:07:35.869Z,2.15
2022-09-23T12:10:07.997Z,1.10
2022-09-23T12:12:47.816Z,1.03
2022-09-23T12:15:32.939Z,0.80
2022-09-23T12:18:23.431Z,0.90
2022-09-23T12:21:49.797Z,0.80
2022-09-23T12:24:52.477Z,1.00
2022-09-23T12:27:37.452Z,1.47
2022-09-23T12:30:16.981Z,1.70
2022-09-23T12:32:46.533Z,1.95
2022-09-23T12:35:33.309Z,1.85
2022-09-23T12:38:04.957Z,2.08
2022-09-23T12:40:40.924Z,2.10
2022-09-23T12:43:19.161Z,1.83
2022-09-23T12:45:48.629Z,2.92
2022-09-23T12:49:01.292Z,1.10
2022-09-23T12:51:34.200Z,1.20
2022-09-23T12:54:26.096Z,1.33
2022-09-23T12:57:06.638Z,1.80
2022-09-23T13:00:14.716Z,1.67
2022-09-23T13:03:09.148Z,2.05
2022-09-23T13:06:04.767Z,2.28
2022-09-23T13:08:38.681Z,2.80
2022-09-23T13:11:20.589Z,3.42
2022-09-23T13:13:51.793Z,2.78
2022-09-23T13:16:27.537Z,2.78
2022-09-23T13:18:58.301Z,3.15
2022-09-23T13:22:09.255Z,3.20
2022-09-23T13:24:45.290Z,3.08
2022-09-23T13:27:32.601Z,3.08
2022-09-23T13:30:07.777Z,2.20
2022-09-23T13:32:49.798Z,2.67
2022-09-23T13:35:27.657Z,2.10
2022-09-23T13:37:56.447Z,5.30
2022-09-23T13:40:28.221Z,4.22
2022-09-23T13:43:02.469Z,7.75
2022-09-23T13:45:33.911Z,5.63
2022-09-23T13:48:08.103Z,5.57
2022-09-23T13:50:41.718Z,7.30
2022-09-23T13:53:14.404Z,4.63
2022-09-23T13:55:43.126Z,4.40
2022-09-23T13:58:22.215Z,4.50
2022-09-23T14:00:52.072Z,1.33
2022-09-23T14:03:31.274Z,1.40
2022-09-23T14:06:10.365Z,1.20
2022-09-23T14:08:43.597Z,0.80
2022-09-23T14:11:17.672Z,0.75
2022-09-23T14:13:55.058Z,1.58
2022-09-23T14:16:28.344Z,1.60
2022-09-23T14:19:02.000Z,2.55
2022-09-23T14:21:38.637Z,2.25
2022-09-23T14:24:20.465Z,2.53
2022-09-23T14:26:55.902Z,2.38
2022-09-23T14:29:31.685Z,1.80
2022-09-23T14:32:04.549Z,1.25
2022-09-23T14:34:49.662Z,1.25
2022-09-23T14:37:47.966Z,1.10
2022-09-23T14:40:20.719Z,1.00
2022-09-23T14:42:53.735Z,1.10
2022-09-23T14:45:28.948Z,1.08
2022-09-23T14:48:01.392Z,0.77
2022-09-23T14:50:40.765Z,1.00
2022-09-23T14:53:40.337Z,1.00
2022-09-23T14:56:48.083Z,0.90
2022-09-23T14:59:30.676Z,1.00
2022-09-23T15:02:01.785Z,1.20
2022-09-23T15:04:56.851Z,1.23
2022-09-23T15:07:27.163Z,1.48
2022-09-23T15:09:56.738Z,1.10
2022-09-23T15:12:29.118Z,0.90
2022-09-23T15:15:37.641Z,5.65
2022-09-23T15:18:27.538Z,1.40
2022-09-23T15:21:02.022Z,1.45
2022-09-23T15:23:40.468Z,1.30
2022-09-23T15:26:15.354Z,1.80
2022-09-23T15:28:45.246Z,0.93
2022-09-23T15:31:15.984Z,1.70
2022-09-23T15:33:48.319Z,1.63
2022-09-23T15:36:21.947Z,1.53
2022-09-23T15:38:51.657Z,1.20
2022-09-23T15:41:21.455Z,1.50
2022-09-23T15:43:54.011Z,1.60
2022-09-23T15:46:26.667Z,1.20
2022-09-23T15:49:01.699Z,1.20
2022-09-23T15:51:31.064Z,1.70
2022-09-23T15:54:23.226Z,2.45
2022-09-23T15:57:00.511Z,1.65
2022-09-23T15:59:32.125Z,1.67
2022-09-23T16:02:08.122Z,1.83
2022-09-23T16:04:49.173Z,2.50
2022-09-23T16:07:20.029Z,2.33
2022-09-23T16:09:48.913Z,3.35
2022-09-23T16:12:17.888Z,1.40
2022-09-23T16:14:46.624Z,2.13
2022-09-23T16:17:15.446Z,1.70
2022-09-23T16:20:23.553Z,2.00
2022-09-23T16:22:57.939Z,2.67
2022-09-23T16:25:30.396Z,1.50
2022-09-23T16:31:02.256Z,1.95
2022-09-23T16:33:31.003Z,2.65
2022-09-23T16:36:08.349Z,1.95
2022-09-23T16:38:37.539Z,2.47
2022-09-23T16:41:06.962Z,3.33
2022-09-23T16:43:40.631Z,1.77
2022-09-23T16:46:12.290Z,2.80
2022-09-23T16:48:53.589Z,1.58
2022-09-23T16:51:28.014Z,2.72
2022-09-23T16:54:36.772Z,6.77
2022-09-23T16:57:13.256Z,10.57
2022-09-23T17:00:00.045Z,9.25
2022-09-23T17:02:47.627Z,2.30
2022-09-23T17:05:19.576Z,2.85
2022-09-23T17:07:50.699Z,2.37
2022-09-23T17:10:21.425Z,3.67
2022-09-23T17:13:09.756Z,2.28
2022-09-23T17:15:40.384Z,4.45
2022-09-23T17:18:10.393Z,3.90
2022-09-23T17:20:43.004Z,3.43
2022-09-23T17:23:38.502Z,3.65
2022-09-23T17:26:09.969Z,6.40
2022-09-23T17:28:42.080Z,17.40
2022-09-23T17:31:11.444Z,3.35
2022-09-23T17:33:42.955Z,3.43
2022-09-23T17:36:18.494Z,3.08
2022-09-23T17:38:53.682Z,3.53
2022-09-23T17:41:23.669Z,3.47
2022-09-23T17:44:00.765Z,6.53
2022-09-23T17:46:35.345Z,3.97
2022-09-23T17:49:05.781Z,5.88
2022-09-23T17:51:35.048Z,3.90
2022-09-23T17:54:11.029Z,8.23
2022-09-23T17:56:44.587Z,3.80
2022-09-23T17:59:14.277Z,3.70
2022-09-23T18:01:44.142Z,4.38
2022-09-23T18:04:13.985Z,4.63
2022-09-23T18:06:48.375Z,4.45
2022-09-23T18:09:19.391Z,5.38
2022-09-23T18:11:49.885Z,3.63
2022-09-23T18:14:25.014Z,4.40
2022-09-23T18:16:59.877Z,4.40
2022-09-23T18:19:33.464Z,4.15
2022-09-23T18:22:03.086Z,3.75
2022-09-23T18:24:38.096Z,4.30
2022-09-23T18:27:10.833Z,3.58
2022-09-23T18:29:46.937Z,3.75
2022-09-23T18:32:17.924Z,6.18
2022-09-23T18:34:50.591Z,3.72
2022-09-23T18:37:24.315Z,4.47
2022-09-23T18:39:55.739Z,4.50
2022-09-23T18:42:29.865Z,3.88
2022-09-23T18:45:02.326Z,5.03
2022-09-23T18:47:50.754Z,3.53
2022-09-23T18:50:39.377Z,3.37
2022-09-23T18:53:10.800Z,3.83
2022-09-23T18:55:42.543Z,6.22
2022-09-23T18:58:14.871Z,5.57
2022-09-23T19:00:48.140Z,6.80
2022-09-23T19:03:19.560Z,5.00
2022-09-23T19:05:48.855Z,5.18
2022-09-23T19:08:19.036Z,4.03
2022-09-23T19:10:57.272Z,4.57
2022-09-23T19:13:27.806Z,4.32
2022-09-23T19:16:04.154Z,4.57
2022-09-23T19:18:42.205Z,4.72
2022-09-23T19:21:14.687Z,12.43
2022-09-23T19:23:54.416Z,5.07
2022-09-23T19:26:28.284Z,6.10
2022-09-23T19:29:02.681Z,5.67
2022-09-23T19:31:34.941Z,12.48
2022-09-23T19:34:10.919Z,5.47
2022-09-23T19:36:42.755Z,4.07
2022-09-23T19:39:18.090Z,4.43
2022-09-23T19:41:49.528Z,9.60
2022-09-23T19:44:20.663Z,17.73
2022-09-23T19:46:56.003Z,6.10
2022-09-23T19:49:31.302Z,5.45
2022-09-23T19:52:01.763Z,5.45
2022-09-23T19:54:30.807Z,5.80
2022-09-23T19:57:19.630Z,14.18
2022-09-23T19:59:57.275Z,6.40
2022-09-23T20:02:26.692Z,6.38
2022-09-23T20:04:55.456Z,6.10
2022-09-23T20:07:24.586Z,6.70
2022-09-23T20:09:53.600Z,6.57
2022-09-23T20:12:27.644Z,6.82
2022-09-23T20:14:56.471Z,6.68
2022-09-23T20:17:40.293Z,23.20
2022-09-23T20:20:48.329Z,52.63
2022-09-23T20:23:20.771Z,16.73
2022-09-23T20:26:14.886Z,9.23
2022-09-23T20:28:45.295Z,7.97
2022-09-23T20:31:15.644Z,9.35
2022-09-23T20:33:46.270Z,9.63
2022-09-23T20:36:15.421Z,7.97
2022-09-23T20:38:44.140Z,8.25
2022-09-23T20:41:13.744Z,8.55
2022-09-23T20:43:42.712Z,8.32
2022-09-23T20:46:15.040Z,8.27
2022-09-23T20:48:46.389Z,7.15
2022-09-23T20:51:15.654Z,8.00
2022-09-23T20:53:45.806Z,10.80
2022-09-23T20:56:15.007Z,9.45
2022-09-23T20:58:44.605Z,8.70
2022-09-23T21:01:15.042Z,9.63
2022-09-23T21:03:46.551Z,9.13
2022-09-23T21:06:17.644Z,12.73
2022-09-23T21:08:47.012Z,12.40
2022-09-23T21:11:18.049Z,10.53
2022-09-23T21:13:48.387Z,11.50
2022-09-23T21:16:22.144Z,11.30
2022-09-23T21:18:52.086Z,12.80
2022-09-23T21:21:22.476Z,16.77
2022-09-23T21:23:53.553Z,33.97
2022-09-23T21:26:24.771Z,49.13
2022-09-23T21:28:57.905Z,56.78
2022-09-23T21:31:32.251Z,55.10
2022-09-23T21:34:03.484Z,51.28
2022-09-23T21:36:34.976Z,45.27
2022-09-23T21:39:05.705Z,40.47
2022-09-23T21:41:35.209Z,35.22
2022-09-23T21:44:06.655Z,21.70
2022-09-23T21:46:38.237Z,29.98
2022-09-23T21:49:06.998Z,30.50
2022-09-23T21:51:40.513Z,31.67
2022-09-23T21:54:14.617Z,34.55
2022-09-23T21:56:44.526Z,22.65
2022-09-23T21:59:13.569Z,13.57
2022-09-23T22:01:45.846Z,9.93
2022-09-23T22:04:18.731Z,9.93
2022-09-23T22:06:49.177Z,15.77
2022-09-23T22:09:20.834Z,17.45
2022-09-23T22:12:11.276Z,17.40
2022-09-23T22:14:40.491Z,14.90
2022-09-23T22:17:12.376Z,13.50
2022-09-23T22:19:45.838Z,14.93
2022-09-23T22:22:19.655Z,14.73
2022-09-23T22:24:50.133Z,15.85
2022-09-23T22:27:21.277Z,14.13
2022-09-23T22:30:07.112Z,14.75
2022-09-23T22:32:43.760Z,14.15
2022-09-23T22:35:16.652Z,14.68
2022-09-23T22:37:46.235Z,13.80
2022-09-23T22:40:16.953Z,10.97
2022-09-23T22:42:46.705Z,10.20
2022-09-23T22:45:15.585Z,8.30
2022-09-23T22:47:46.127Z,7.28
2022-09-23T22:50:15.504Z,8.30
2022-09-23T22:52:44.518Z,7.40
2022-09-23T22:55:14.098Z,9.20
2022-09-23T22:57:42.784Z,8.60
2022-09-23T23:00:13.596Z,7.97
2022-09-23T23:02:44.092Z,8.68
2022-09-23T23:05:14.613Z,9.50
2022-09-23T23:07:43.272Z,10.63
2022-09-23T23:10:11.997Z,8.52
2022-09-23T23:12:41.872Z,6.75
2022-09-23T23:15:12.481Z,8.55
2022-09-23T23:17:43.737Z,8.70
2022-09-23T23:20:13.835Z,8.65
2022-09-23T23:22:42.804Z,6.95
2022-09-23T23:25:11.759Z,6.20
2022-09-23T23:27:40.430Z,6.85
2022-09-23T23:30:10.870Z,6.00
2022-09-23T23:32:39.577Z,7.53
2022-09-23T23:35:09.354Z,8.60
2022-09-23T23:37:39.510Z,9.88
2022-09-23T23:40:09.889Z,8.82
2022-09-23T23:42:40.748Z,8.77
2022-09-23T23:45:10.739Z,10.98
2022-09-23T23:47:40.117Z,8.48
2022-09-23T23:50:09.882Z,7.47
2022-09-23T23:52:40.262Z,6.78
2022-09-23T23:55:09.884Z,7.10
2022-09-23T23:57:39.722Z,7.10
